createdAt,value
2023-01-10T00:01:29.024Z,98873.56
2023-01-10T00:03:55.787Z,98895.13
2023-01-10T00:06:22.772Z,98951.13
2023-01-10T00:08:49.610Z,98911.66
2023-01-10T00:11:34.941Z,98938.66
2023-01-10T00:14:01.882Z,98923.59
2023-01-10T00:16:28.711Z,98896.53
2023-01-10T00:18:55.564Z,98923.91
2023-01-10T00:21:22.409Z,98986.50
2023-01-10T00:23:49.186Z,98995.81
2023-01-10T00:26:15.985Z,98974.03
2023-01-10T00:28:43.120Z,98964.91
2023-01-10T00:31:11.999Z,98896.28
2023-01-10T00:33:38.926Z,98887.75
2023-01-10T00:36:07.662Z,98919.78
2023-01-10T00:38:35.809Z,98998.72
2023-01-10T00:41:03.954Z,98986.31
2023-01-10T00:43:49.486Z,98934.47
2023-01-10T00:46:16.279Z,98998.22
2023-01-10T00:48:43.082Z,98830.88
2023-01-10T00:51:09.835Z,99001.06
2023-01-10T00:53:36.573Z,99006.06
2023-01-10T00:56:03.371Z,99005.06
2023-01-10T00:58:30.232Z,98964.91
2023-01-10T01:00:57.120Z,98893.09
2023-01-10T01:03:24.142Z,98988.91
2023-01-10T01:05:51.436Z,99029.31
2023-01-10T01:08:19.609Z,98996.53
2023-01-10T01:10:46.744Z,98990.78
2023-01-10T01:13:19.396Z,99026.75
2023-01-10T01:15:46.894Z,98956.91
2023-01-10T01:18:16.293Z,99025.66
2023-01-10T01:20:43.455Z,98982.78
2023-01-10T01:23:10.302Z,98936.56
2023-01-10T01:25:37.265Z,98968.53
2023-01-10T01:28:04.232Z,98923.31
2023-01-10T01:30:31.385Z,99006.66
2023-01-10T01:32:58.255Z,98874.91
2023-01-10T01:35:25.236Z,98976.13
2023-01-10T01:37:52.115Z,98860.16
2023-01-10T01:40:21.402Z,99033.28
2023-01-10T01:42:49.436Z,98970.28
2023-01-10T01:45:36.146Z,99016.91
2023-01-10T01:48:32.726Z,99015.31
2023-01-10T01:51:07.596Z,98961.03
2023-01-10T01:53:50.287Z,99010.22
2023-01-10T01:56:51.986Z,99039.06
2023-01-10T01:59:36.406Z,98994.34
2023-01-10T02:02:11.071Z,98975.38
2023-01-10T02:05:05.613Z,98863.41
2023-01-10T02:07:37.823Z,98990.34
2023-01-10T02:10:16.926Z,99029.88
2023-01-10T02:12:46.525Z,99034.88
2023-01-10T02:15:15.692Z,98973.53
2023-01-10T02:17:42.598Z,99007.09
2023-01-10T02:20:12.771Z,98947.03
2023-01-10T02:23:05.965Z,98905.31
2023-01-10T02:25:54.733Z,99032.44
2023-01-10T02:28:51.871Z,99045.97
2023-01-10T02:31:37.674Z,99038.41
2023-01-10T02:34:23.976Z,99005.41
2023-01-10T02:37:06.603Z,99026.81
2023-01-10T02:39:59.912Z,98984.19
2023-01-10T02:42:37.371Z,98945.56
2023-01-10T02:45:14.486Z,99065.59
2023-01-10T02:47:42.194Z,99063.94
2023-01-10T02:50:27.769Z,99066.28
2023-01-10T02:52:57.259Z,99040.47
2023-01-10T02:55:30.616Z,99032.06
2023-01-10T02:58:15.317Z,99070.47
2023-01-10T03:01:19.534Z,99047.25
2023-01-10T03:04:03.677Z,99027.78
2023-01-10T03:06:54.834Z,99022.06
2023-01-10T03:09:40.081Z,99003.66
2023-01-10T03:12:14.195Z,99010.28
2023-01-10T03:14:43.028Z,99014.75
2023-01-10T03:17:12.232Z,98955.47
2023-01-10T03:19:46.203Z,99077.09
2023-01-10T03:22:14.569Z,99070.31
2023-01-10T03:24:54.121Z,99054.16
2023-01-10T03:27:37.919Z,99066.31
2023-01-10T03:30:30.495Z,99068.16
2023-01-10T03:32:59.979Z,99070.88
2023-01-10T03:35:38.901Z,99037.72
2023-01-10T03:38:11.183Z,99028.66
2023-01-10T03:41:10.493Z,99006.19
2023-01-10T03:44:22.818Z,99086.31
2023-01-10T03:46:58.361Z,99079.41
2023-01-10T03:49:27.636Z,99064.75
2023-01-10T03:51:56.870Z,99079.78
2023-01-10T03:54:23.715Z,99051.97
2023-01-10T03:56:51.655Z,99091.19
2023-01-10T03:59:23.252Z,99058.69
2023-01-10T04:01:50.954Z,99098.25
2023-01-10T04:04:17.925Z,99048.50
2023-01-10T04:06:45.001Z,99102.25
2023-01-10T04:09:12.447Z,99064.75
2023-01-10T04:11:39.382Z,99080.53
2023-01-10T04:14:06.351Z,98976.06
2023-01-10T04:16:33.349Z,99085.63
2023-01-10T04:19:00.230Z,99102.75
2023-01-10T04:21:26.976Z,99057.34
2023-01-10T04:23:53.867Z,99008.97
2023-01-10T04:26:20.664Z,98974.63
2023-01-10T04:28:47.558Z,99048.28
2023-01-10T04:31:14.493Z,99108.63
2023-01-10T04:33:41.326Z,99051.69
2023-01-10T04:36:08.420Z,98998.25
2023-01-10T04:38:35.304Z,99140.56
2023-01-10T04:41:02.065Z,99082.72
2023-01-10T04:43:28.894Z,99095.50
2023-01-10T04:45:55.805Z,99124.75
2023-01-10T04:48:22.728Z,99114.56
2023-01-10T04:50:51.151Z,99123.06
2023-01-10T04:53:18.437Z,99104.94
2023-01-10T04:55:45.617Z,98961.84
2023-01-10T04:58:12.608Z,99104.09
2023-01-10T05:00:40.191Z,99124.91
2023-01-10T05:03:07.210Z,99146.88
2023-01-10T05:05:34.409Z,99091.69
2023-01-10T05:08:01.523Z,99172.81
2023-01-10T05:10:28.322Z,99147.59
2023-01-10T05:12:55.016Z,99178.81
2023-01-10T05:15:23.154Z,99116.94
2023-01-10T05:17:51.292Z,99168.03
2023-01-10T05:20:18.339Z,99209.19
2023-01-10T05:22:45.884Z,99203.38
2023-01-10T05:25:12.742Z,99093.59
2023-01-10T05:27:42.651Z,99203.47
2023-01-10T05:30:13.058Z,99081.06
2023-01-10T05:32:40.518Z,99169.88
2023-01-10T05:35:07.747Z,99174.31
2023-01-10T05:37:34.736Z,99213.06
2023-01-10T05:40:01.498Z,99183.47
2023-01-10T05:42:28.340Z,99176.38
2023-01-10T05:44:55.155Z,99151.28
2023-01-10T05:47:22.089Z,99209.38
2023-01-10T05:49:48.926Z,99181.75
2023-01-10T05:52:15.787Z,99213.72
2023-01-10T05:54:42.657Z,99047.97
2023-01-10T05:57:09.460Z,99170.78
2023-01-10T05:59:36.319Z,99206.06
2023-01-10T06:02:03.142Z,99240.78
2023-01-10T06:04:29.942Z,99230.41
2023-01-10T06:06:57.005Z,99251.72
2023-01-10T06:09:23.775Z,99256.78
2023-01-10T06:11:50.517Z,99226.72
2023-01-10T06:14:19.437Z,99257.63
2023-01-10T06:16:47.045Z,99201.28
2023-01-10T06:19:14.329Z,99232.94
2023-01-10T06:21:41.816Z,99300.53
2023-01-10T06:24:08.979Z,99254.47
2023-01-10T06:26:35.968Z,99267.97
2023-01-10T06:29:03.387Z,99303.53
2023-01-10T06:31:30.280Z,99224.50
2023-01-10T06:33:57.111Z,99282.44
2023-01-10T06:36:24.007Z,99301.63
2023-01-10T06:38:50.779Z,99192.91
2023-01-10T06:41:17.659Z,99278.34
2023-01-10T06:43:46.515Z,99304.25
2023-01-10T06:46:16.503Z,99274.84
2023-01-10T06:48:45.677Z,99303.25
2023-01-10T06:51:14.512Z,99326.06
2023-01-10T06:53:41.822Z,99315.22
2023-01-10T06:56:09.884Z,99285.75
2023-01-10T06:58:41.219Z,99303.66
2023-01-10T07:01:14.939Z,99327.31
2023-01-10T07:03:42.298Z,99357.75
2023-01-10T07:06:10.299Z,99249.47
2023-01-10T07:08:41.627Z,99342.41
2023-01-10T07:11:09.512Z,99309.91
2023-01-10T07:13:36.642Z,99287.00
2023-01-10T07:16:10.710Z,99354.38
2023-01-10T07:18:39.665Z,99300.16
2023-01-10T07:21:06.729Z,99371.25
2023-01-10T07:23:33.720Z,99364.81
2023-01-10T07:26:11.754Z,99388.50
2023-01-10T07:28:38.625Z,99378.31
2023-01-10T07:31:06.281Z,99316.38
2023-01-10T07:33:33.144Z,99387.84
2023-01-10T07:36:01.253Z,99354.47
2023-01-10T07:38:28.841Z,99354.56
2023-01-10T07:40:56.153Z,99339.41
2023-01-10T07:43:23.238Z,99253.97
2023-01-10T07:45:50.083Z,99351.22
2023-01-10T07:48:17.079Z,99331.00
2023-01-10T07:50:43.845Z,99333.56
2023-01-10T07:53:10.836Z,99416.13
2023-01-10T07:55:39.188Z,99411.06
2023-01-10T07:58:07.975Z,99409.31
2023-01-10T08:00:35.316Z,99417.66
2023-01-10T08:03:02.584Z,99431.00
2023-01-10T08:05:29.448Z,99434.50
2023-01-10T08:08:00.003Z,99371.44
2023-01-10T08:10:27.022Z,99437.78
2023-01-10T08:12:53.909Z,99421.91
2023-01-10T08:15:20.853Z,99443.16
2023-01-10T08:17:47.623Z,99412.13
2023-01-10T08:20:14.651Z,99372.78
2023-01-10T08:22:41.565Z,99397.88
2023-01-10T08:25:09.338Z,99466.03
2023-01-10T08:27:36.137Z,99427.56
2023-01-10T08:30:04.012Z,99455.41
2023-01-10T08:32:30.810Z,99475.66
2023-01-10T08:34:57.711Z,99482.44
2023-01-10T08:37:24.601Z,99475.88
2023-01-10T08:39:51.473Z,99480.13
2023-01-10T08:42:18.741Z,99448.09
2023-01-10T08:44:45.606Z,99433.91
2023-01-10T08:47:13.197Z,99509.44
2023-01-10T08:49:40.184Z,99497.63
2023-01-10T08:52:06.880Z,99494.28
2023-01-10T08:54:33.849Z,99470.88
2023-01-10T08:57:00.663Z,99496.13
2023-01-10T08:59:27.397Z,99438.72
2023-01-10T09:01:54.278Z,99484.94
2023-01-10T09:04:21.369Z,99499.38
2023-01-10T09:06:48.200Z,99465.63
2023-01-10T09:09:14.894Z,99377.56
2023-01-10T09:11:41.995Z,99515.50
2023-01-10T09:14:09.025Z,99487.78
2023-01-10T09:16:35.831Z,99420.94
2023-01-10T09:19:04.389Z,99508.03
2023-01-10T09:21:31.478Z,99491.97
2023-01-10T09:23:58.286Z,99406.31
2023-01-10T09:26:24.910Z,99491.22
2023-01-10T09:28:51.711Z,99455.94
2023-01-10T09:31:18.518Z,99514.19
2023-01-10T09:33:47.774Z,99515.94
2023-01-10T09:36:15.684Z,99517.47
2023-01-10T09:38:42.912Z,99535.06
2023-01-10T09:41:46.048Z,99489.06
2023-01-10T09:44:30.753Z,99333.53
2023-01-10T09:47:22.637Z,99480.28
2023-01-10T09:49:50.106Z,99534.09
2023-01-10T09:52:19.577Z,99529.03
2023-01-10T09:54:50.489Z,99429.00
2023-01-10T09:57:20.709Z,99471.91
2023-01-10T09:59:51.623Z,99522.31
2023-01-10T10:02:34.387Z,99517.38
2023-01-10T10:05:10.013Z,99535.06
2023-01-10T10:07:37.421Z,99502.34
2023-01-10T10:10:12.267Z,99550.22
2023-01-10T10:13:01.469Z,99495.56
2023-01-10T10:15:32.651Z,99540.72
2023-01-10T10:18:42.323Z,99536.41
2023-01-10T10:21:34.631Z,99397.75
2023-01-10T10:24:20.066Z,99509.28
2023-01-10T10:26:58.980Z,99550.34
2023-01-10T10:29:25.756Z,99557.94
2023-01-10T10:32:30.070Z,99555.63
2023-01-10T10:35:23.348Z,99346.69
2023-01-10T10:37:57.681Z,99547.22
2023-01-10T10:40:28.719Z,99555.63
2023-01-10T10:42:59.326Z,99537.19
2023-01-10T10:45:47.433Z,99558.13
2023-01-10T10:48:39.269Z,99556.25
2023-01-10T10:51:17.531Z,99512.47
2023-01-10T10:53:44.354Z,99545.53
2023-01-10T10:56:15.847Z,99378.34
2023-01-10T10:58:46.088Z,99502.75
2023-01-10T11:01:16.973Z,99493.47
2023-01-10T11:03:54.857Z,99439.75
2023-01-10T11:06:25.142Z,99560.09
2023-01-10T11:08:55.612Z,99565.00
2023-01-10T11:11:47.173Z,99546.44
2023-01-10T11:14:13.912Z,99533.97
2023-01-10T11:16:44.784Z,99380.28
2023-01-10T11:19:25.806Z,99573.44
2023-01-10T11:22:06.594Z,99424.00
2023-01-10T11:24:36.041Z,99573.66
2023-01-10T11:27:22.977Z,99567.94
2023-01-10T11:29:50.912Z,99561.03
2023-01-10T11:32:19.976Z,99553.13
2023-01-10T11:34:59.040Z,99528.44
2023-01-10T11:37:34.236Z,99574.72
2023-01-10T11:40:15.364Z,99565.38
2023-01-10T11:42:42.444Z,99559.81
2023-01-10T11:45:18.475Z,99571.13
2023-01-10T11:47:50.664Z,99525.22
2023-01-10T11:50:24.935Z,99519.22
2023-01-10T11:52:52.904Z,99478.75
2023-01-10T11:55:39.895Z,99570.47
2023-01-10T11:58:10.739Z,99547.16
2023-01-10T12:00:44.528Z,99559.63
2023-01-10T12:03:32.622Z,99584.13
2023-01-10T12:06:03.174Z,99588.22
2023-01-10T12:08:44.247Z,99433.66
2023-01-10T12:11:17.069Z,99585.69
2023-01-10T12:13:51.781Z,99517.69
2023-01-10T12:16:23.313Z,99584.97
2023-01-10T12:18:52.856Z,99585.84
2023-01-10T12:21:44.381Z,99584.00
2023-01-10T12:24:17.679Z,99592.53
2023-01-10T12:26:45.656Z,99453.03
2023-01-10T12:29:17.883Z,99551.44
2023-01-10T12:31:44.615Z,99475.97
2023-01-10T12:34:21.095Z,99632.13
2023-01-10T12:37:06.139Z,99607.28
2023-01-10T12:39:36.994Z,99571.34
2023-01-10T12:42:28.443Z,99620.97
2023-01-10T12:45:04.243Z,99629.50
2023-01-10T12:47:59.273Z,99634.66
2023-01-10T12:50:32.707Z,99559.84
2023-01-10T12:53:39.881Z,99542.19
2023-01-10T12:56:13.037Z,99629.72
2023-01-10T12:58:47.134Z,99622.28
2023-01-10T13:01:21.235Z,99612.38
2023-01-10T13:03:56.131Z,99664.81
2023-01-10T13:06:31.676Z,99542.34
2023-01-10T13:09:01.737Z,99610.97
2023-01-10T13:11:35.965Z,99670.13
2023-01-10T13:14:05.152Z,99645.94
2023-01-10T13:16:34.998Z,99678.84
2023-01-10T13:19:13.307Z,99676.72
2023-01-10T13:21:42.292Z,99687.53
2023-01-10T13:24:15.098Z,99686.78
2023-01-10T13:27:17.760Z,99642.22
2023-01-10T13:29:44.470Z,99638.13
2023-01-10T13:32:27.825Z,99655.06
2023-01-10T13:34:55.925Z,99686.38
2023-01-10T13:37:31.256Z,99624.00
2023-01-10T13:40:00.640Z,99663.66
2023-01-10T13:42:48.696Z,99723.44
2023-01-10T13:45:16.525Z,99693.34
2023-01-10T13:47:44.120Z,99718.44
2023-01-10T13:50:48.925Z,99695.00
2023-01-10T13:53:18.876Z,99716.88
2023-01-10T13:55:46.735Z,99723.78
2023-01-10T13:58:13.349Z,99719.63
2023-01-10T14:00:58.513Z,99715.44
2023-01-10T14:03:42.484Z,99714.75
2023-01-10T14:06:17.029Z,99701.66
2023-01-10T14:08:54.112Z,99736.09
2023-01-10T14:11:25.081Z,99697.34
2023-01-10T14:13:56.472Z,99722.78
2023-01-10T14:19:23.419Z,99727.84
2023-01-10T14:21:54.997Z,99732.19
2023-01-10T14:24:28.604Z,99730.38
2023-01-10T14:26:58.833Z,99732.06
2023-01-10T14:29:30.616Z,99753.13
2023-01-10T14:31:59.262Z,99744.66
2023-01-10T14:34:29.437Z,99764.94
2023-01-10T14:36:59.642Z,99747.97
2023-01-10T14:39:28.492Z,99671.44
2023-01-10T14:42:00.470Z,99708.47
2023-01-10T14:44:45.842Z,99586.31
2023-01-10T14:47:34.269Z,99705.00
2023-01-10T14:50:07.396Z,99707.59
2023-01-10T14:52:34.465Z,99678.91
2023-01-10T14:55:13.943Z,99609.78
2023-01-10T14:57:40.891Z,99728.56
2023-01-10T15:00:08.049Z,99754.06
2023-01-10T15:02:37.712Z,99728.03
2023-01-10T15:05:16.107Z,99744.75
2023-01-10T15:07:43.249Z,99726.28
2023-01-10T15:10:24.002Z,99748.31
2023-01-10T15:13:02.082Z,99756.13
2023-01-10T15:15:37.870Z,99678.34
2023-01-10T15:18:33.316Z,99767.91
2023-01-10T15:21:01.373Z,99756.94
2023-01-10T15:23:39.348Z,99778.16
2023-01-10T15:26:15.040Z,99756.19
2023-01-10T15:28:49.230Z,99724.19
2023-01-10T15:31:19.833Z,99788.31
2023-01-10T15:33:56.461Z,99780.72
2023-01-10T15:36:29.455Z,99750.38
2023-01-10T15:38:56.514Z,99781.84
2023-01-10T15:41:24.372Z,99790.34
2023-01-10T15:43:54.336Z,99706.91
2023-01-10T15:46:24.157Z,99789.53
2023-01-10T15:48:55.528Z,99757.63
2023-01-10T15:51:29.471Z,99805.88
2023-01-10T15:54:03.988Z,99806.63
2023-01-10T15:56:40.832Z,99811.72
2023-01-10T15:59:26.390Z,99762.88
2023-01-10T16:02:28.681Z,99809.25
2023-01-10T16:04:59.644Z,99825.38
2023-01-10T16:07:31.031Z,99794.00
2023-01-10T16:10:09.033Z,99819.41
2023-01-10T16:12:57.755Z,99724.06
2023-01-10T16:15:30.628Z,99816.19
2023-01-10T16:17:58.046Z,99793.31
2023-01-10T16:20:46.329Z,99803.41
2023-01-10T16:23:19.756Z,99817.84
2023-01-10T16:25:50.274Z,99808.59
2023-01-10T16:28:18.477Z,99824.66
2023-01-10T16:30:48.772Z,99759.72
2023-01-10T16:33:19.052Z,99841.63
2023-01-10T16:35:48.177Z,99872.22
2023-01-10T16:38:17.089Z,99832.53
2023-01-10T16:40:48.893Z,99780.31
2023-01-10T16:43:19.176Z,99778.66
2023-01-10T16:45:48.185Z,99782.03
2023-01-10T16:48:16.269Z,99703.59
2023-01-10T16:50:43.462Z,99660.56
2023-01-10T16:53:15.383Z,99809.28
2023-01-10T16:55:51.132Z,99816.88
2023-01-10T16:58:19.776Z,99871.88
2023-01-10T17:00:52.511Z,99840.59
2023-01-10T17:03:24.718Z,99873.63
2023-01-10T17:05:52.329Z,99864.25
2023-01-10T17:08:24.438Z,99757.81
2023-01-10T17:10:56.367Z,99800.06
2023-01-10T17:13:27.531Z,99882.94
2023-01-10T17:16:02.729Z,99838.91
2023-01-10T17:18:29.825Z,99815.25
2023-01-10T17:20:58.538Z,99867.66
2023-01-10T17:23:27.224Z,99838.97
2023-01-10T17:26:03.935Z,99905.81
2023-01-10T17:28:32.821Z,99899.09
2023-01-10T17:31:02.841Z,99888.13
2023-01-10T17:33:30.337Z,99853.47
2023-01-10T17:35:57.736Z,99889.00
2023-01-10T17:38:29.163Z,99891.53
2023-01-10T17:41:03.039Z,99903.38
2023-01-10T17:43:31.781Z,99908.44
2023-01-10T17:46:02.957Z,99885.59
2023-01-10T17:48:30.031Z,99846.69
2023-01-10T17:50:59.902Z,99881.38
2023-01-10T17:53:35.544Z,99907.59
2023-01-10T17:56:06.839Z,99901.69
2023-01-10T17:58:34.495Z,99911.00
2023-01-10T18:01:02.123Z,99855.16
2023-01-10T18:03:29.254Z,99910.13
2023-01-10T18:05:59.245Z,99522.16
2023-01-10T18:08:29.228Z,99908.44
2023-01-10T18:11:00.580Z,99888.13
2023-01-10T18:13:32.720Z,99906.75
2023-01-10T18:16:03.364Z,99858.53
2023-01-10T18:18:31.495Z,99862.78
2023-01-10T18:21:02.217Z,99846.69
2023-01-10T18:23:32.310Z,99893.22
2023-01-10T18:26:06.903Z,99902.50
2023-01-10T18:28:45.573Z,99906.75
2023-01-10T18:31:20.504Z,99860.22
2023-01-10T18:33:48.379Z,99917.75
2023-01-10T18:36:21.832Z,99924.50
2023-01-10T18:38:49.387Z,99885.59
2023-01-10T18:41:17.292Z,99910.13
2023-01-10T18:43:47.629Z,99906.75
2023-01-10T18:46:18.945Z,99919.47
2023-01-10T18:48:52.164Z,99926.22
2023-01-10T18:51:22.066Z,99919.44
2023-01-10T18:53:54.066Z,99914.34
2023-01-10T18:56:22.505Z,99853.44
2023-01-10T18:58:49.875Z,99833.97
2023-01-10T19:01:20.666Z,99933.81
2023-01-10T19:03:50.330Z,99936.38
2023-01-10T19:06:22.094Z,99905.91
2023-01-10T19:08:54.358Z,99876.22
2023-01-10T19:11:21.922Z,99883.88
2023-01-10T19:13:54.539Z,99927.03
2023-01-10T19:16:25.751Z,99902.50
2023-01-10T19:18:55.717Z,99951.56
2023-01-10T19:21:26.251Z,99962.56
2023-01-10T19:23:55.980Z,99927.91
2023-01-10T19:26:24.900Z,99874.56
2023-01-10T19:28:55.647Z,99955.84
2023-01-10T19:31:27.856Z,99900.78
2023-01-10T19:34:01.428Z,99785.72
2023-01-10T19:36:29.281Z,99975.31
2023-01-10T19:38:58.853Z,99944.81
2023-01-10T19:41:27.419Z,99962.59
2023-01-10T19:43:58.201Z,99972.75
2023-01-10T19:46:26.785Z,99929.59
2023-01-10T19:48:56.291Z,99983.78
2023-01-10T19:51:23.378Z,99983.75
2023-01-10T19:53:51.350Z,99985.47
2023-01-10T19:56:26.259Z,99959.19
2023-01-10T19:58:56.681Z,99953.28
2023-01-10T20:01:27.463Z,99992.25
2023-01-10T20:03:58.916Z,99944.81
2023-01-10T20:06:29.702Z,99993.94
2023-01-10T20:08:57.900Z,100003.25
2023-01-10T20:11:26.833Z,99972.75
2023-01-10T20:13:56.797Z,99979.50
2023-01-10T20:16:23.884Z,100009.16
2023-01-10T20:18:52.178Z,100007.47
2023-01-10T20:21:20.871Z,100005.78
2023-01-10T20:23:48.595Z,99935.47
2023-01-10T20:26:21.400Z,99996.47
2023-01-10T20:28:50.597Z,99966.81
2023-01-10T20:31:21.352Z,100004.91
2023-01-10T20:33:48.825Z,99960.88
2023-01-10T20:36:18.746Z,100022.69
2023-01-10T20:38:45.918Z,100013.38
2023-01-10T20:41:18.463Z,99951.53
2023-01-10T20:43:45.726Z,100023.56
2023-01-10T20:46:20.733Z,99922.75
2023-01-10T20:48:48.517Z,99976.94
2023-01-10T20:51:19.450Z,100022.72
2023-01-10T20:53:47.557Z,100013.38
2023-01-10T20:56:17.286Z,100026.09
2023-01-10T20:58:44.448Z,100015.06
2023-01-10T21:01:25.007Z,100020.19
2023-01-10T21:04:00.096Z,100006.63
2023-01-10T21:06:27.261Z,100002.34
2023-01-10T21:08:54.257Z,100020.97
2023-01-10T21:11:21.330Z,99967.63
2023-01-10T21:13:48.638Z,100012.50
2023-01-10T21:16:19.491Z,100053.19
2023-01-10T21:18:47.183Z,99996.44
2023-01-10T21:21:17.038Z,100037.94
2023-01-10T21:23:44.055Z,99966.81
2023-01-10T21:26:13.487Z,99886.38
2023-01-10T21:28:42.873Z,99988.81
2023-01-10T21:31:10.869Z,99984.56
2023-01-10T21:33:37.876Z,99946.47
2023-01-10T21:36:05.650Z,100032.00
2023-01-10T21:38:33.815Z,100082.75
2023-01-10T21:41:12.871Z,100052.31
2023-01-10T21:43:44.450Z,100031.13
2023-01-10T21:46:12.029Z,100010.81
2023-01-10T21:48:38.937Z,100020.09
2023-01-10T21:51:05.990Z,99920.16
2023-01-10T21:53:32.998Z,99957.44
2023-01-10T21:56:00.177Z,100018.41
2023-01-10T21:58:27.493Z,99865.94
2023-01-10T22:00:56.918Z,100037.03
2023-01-10T22:03:23.938Z,100030.25
2023-01-10T22:05:50.847Z,99972.66
2023-01-10T22:08:17.700Z,100009.09
2023-01-10T22:10:44.560Z,99938.78
2023-01-10T22:13:11.531Z,99987.09
2023-01-10T22:15:41.099Z,100032.84
2023-01-10T22:18:08.639Z,99988.78
2023-01-10T22:20:35.901Z,100000.59
2023-01-10T22:23:02.897Z,100010.78
2023-01-10T22:25:29.827Z,99867.72
2023-01-10T22:27:56.764Z,99983.69
2023-01-10T22:30:23.664Z,99962.53
2023-01-10T22:32:55.364Z,99974.38
2023-01-10T22:35:26.073Z,100037.06
2023-01-10T22:37:55.149Z,100011.66
2023-01-10T22:40:22.852Z,99994.75
2023-01-10T22:42:54.543Z,99989.66
2023-01-10T22:45:21.486Z,99922.78
2023-01-10T22:47:49.589Z,100034.56
2023-01-10T22:50:18.153Z,100012.50
2023-01-10T22:52:48.750Z,100059.09
2023-01-10T22:55:16.749Z,100028.63
2023-01-10T22:57:47.909Z,99993.06
2023-01-10T23:00:15.366Z,100037.09
2023-01-10T23:02:42.256Z,99965.94
2023-01-10T23:05:09.284Z,99948.19
2023-01-10T23:07:36.126Z,100032.88
2023-01-10T23:10:06.126Z,100010.00
2023-01-10T23:12:33.866Z,100010.84
2023-01-10T23:15:00.684Z,99977.00
2023-01-10T23:17:27.640Z,100021.88
2023-01-10T23:19:54.425Z,100004.94
2023-01-10T23:22:21.320Z,100004.94
2023-01-10T23:24:48.253Z,99980.38
2023-01-10T23:27:15.635Z,99966.81
2023-01-10T23:29:42.485Z,99992.25
2023-01-10T23:32:09.278Z,99972.75
2023-01-10T23:34:36.729Z,100014.22
2023-01-10T23:37:04.613Z,100029.47
2023-01-10T23:39:31.499Z,100036.22
2023-01-10T23:41:58.189Z,99855.84
2023-01-10T23:44:28.685Z,100043.00
2023-01-10T23:46:55.815Z,100051.47
2023-01-10T23:49:22.529Z,99998.97
2023-01-10T23:51:49.303Z,100024.38
2023-01-10T23:54:17.404Z,99987.94
2023-01-10T23:56:44.248Z,99976.94
2023-01-10T23:59:10.971Z,100007.47
